sensor_id;sensor_type;location;lat;lon;timestamp;P1;durP1;ratioP1;P2;durP2;ratioP2
38208;SDS011;24016;52.102;11.584;2023-07-13T00:00:17;7.75;;;3.00;;
38208;SDS011;24016;52.102;11.584;2023-07-13T00:02:43;5.07;;;2.95;;
38208;SDS011;24016;52.102;11.584;2023-07-13T00:05:09;5.50;;;3.03;;
38208;SDS011;24016;52.102;11.584;2023-07-13T00:07:35;5.78;;;2.97;;
38208;SDS011;24016;52.102;11.584;2023-07-13T00:10:01;6.38;;;3.13;;
38208;SDS011;24016;52.102;11.584;2023-07-13T00:12:29;4.43;;;3.10;;
38208;SDS011;24016;52.102;11.584;2023-07-13T00:14:58;4.82;;;2.70;;
38208;SDS011;24016;52.102;11.584;2023-07-13T00:17:26;4.63;;;2.63;;
38208;SDS011;24016;52.102;11.584;2023-07-13T00:19:52;3.70;;;2.53;;
38208;SDS011;24016;52.102;11.584;2023-07-13T00:22:18;3.47;;;2.60;;
38208;SDS011;24016;52.102;11.584;2023-07-13T00:24:45;4.82;;;2.95;;
38208;SDS011;24016;52.102;11.584;2023-07-13T00:27:11;4.35;;;2.80;;
38208;SDS011;24016;52.102;11.584;2023-07-13T00:29:37;5.32;;;2.90;;
38208;SDS011;24016;52.102;11.584;2023-07-13T00:32:03;6.43;;;3.45;;
38208;SDS011;24016;52.102;11.584;2023-07-13T00:34:29;5.95;;;2.95;;
38208;SDS011;24016;52.102;11.584;2023-07-13T00:36:55;5.57;;;2.70;;
38208;SDS011;24016;52.102;11.584;2023-07-13T00:39:21;4.10;;;2.67;;
38208;SDS011;24016;52.102;11.584;2023-07-13T00:41:47;6.18;;;3.35;;
38208;SDS011;24016;52.102;11.584;2023-07-13T00:44:13;5.53;;;3.60;;
38208;SDS011;24016;52.102;11.584;2023-07-13T00:46:40;4.65;;;2.78;;
38208;SDS011;24016;52.102;11.584;2023-07-13T00:49:07;4.65;;;3.05;;
38208;SDS011;24016;52.102;11.584;2023-07-13T00:54:19;6.38;;;3.20;;
38208;SDS011;24016;52.102;11.584;2023-07-13T00:56:50;4.80;;;3.28;;
38208;SDS011;24016;52.102;11.584;2023-07-13T00:59:18;4.78;;;2.97;;
38208;SDS011;24016;52.102;11.584;2023-07-13T01:01:45;6.10;;;3.25;;
38208;SDS011;24016;52.102;11.584;2023-07-13T01:04:11;6.70;;;3.10;;
38208;SDS011;24016;52.102;11.584;2023-07-13T01:06:37;4.60;;;3.25;;
38208;SDS011;24016;52.102;11.584;2023-07-13T01:09:04;6.38;;;3.33;;
38208;SDS011;24016;52.102;11.584;2023-07-13T01:11:31;7.05;;;3.45;;
38208;SDS011;24016;52.102;11.584;2023-07-13T01:13:56;8.38;;;3.72;;
38208;SDS011;24016;52.102;11.584;2023-07-13T01:16:25;6.40;;;3.20;;
38208;SDS011;24016;52.102;11.584;2023-07-13T01:18:52;6.07;;;3.53;;
38208;SDS011;24016;52.102;11.584;2023-07-13T01:21:19;7.30;;;3.65;;
38208;SDS011;24016;52.102;11.584;2023-07-13T01:23:45;6.40;;;3.78;;
38208;SDS011;24016;52.102;11.584;2023-07-13T01:26:11;7.55;;;3.58;;
38208;SDS011;24016;52.102;11.584;2023-07-13T01:28:37;7.53;;;4.03;;
38208;SDS011;24016;52.102;11.584;2023-07-13T01:33:39;5.35;;;3.88;;
38208;SDS011;24016;52.102;11.584;2023-07-13T01:36:07;5.43;;;3.60;;
38208;SDS011;24016;52.102;11.584;2023-07-13T01:38:34;5.90;;;3.53;;
38208;SDS011;24016;52.102;11.584;2023-07-13T01:41:00;5.70;;;3.40;;
38208;SDS011;24016;52.102;11.584;2023-07-13T01:43:26;6.22;;;3.88;;
38208;SDS011;24016;52.102;11.584;2023-07-13T01:45:52;6.82;;;3.90;;
38208;SDS011;24016;52.102;11.584;2023-07-13T01:48:17;6.90;;;3.70;;
38208;SDS011;24016;52.102;11.584;2023-07-13T01:50:43;6.43;;;3.28;;
38208;SDS011;24016;52.102;11.584;2023-07-13T01:53:09;7.68;;;4.10;;
38208;SDS011;24016;52.102;11.584;2023-07-13T01:55:35;8.25;;;4.40;;
38208;SDS011;24016;52.102;11.584;2023-07-13T01:58:01;8.02;;;3.90;;
38208;SDS011;24016;52.102;11.584;2023-07-13T02:00:27;6.07;;;3.70;;
38208;SDS011;24016;52.102;11.584;2023-07-13T02:02:53;9.30;;;3.92;;
38208;SDS011;24016;52.102;11.584;2023-07-13T02:05:18;4.93;;;3.80;;
38208;SDS011;24016;52.102;11.584;2023-07-13T02:07:44;6.70;;;3.70;;
38208;SDS011;24016;52.102;11.584;2023-07-13T02:10:10;6.10;;;3.20;;
38208;SDS011;24016;52.102;11.584;2023-07-13T02:12:36;7.03;;;3.50;;
38208;SDS011;24016;52.102;11.584;2023-07-13T02:15:02;6.53;;;3.60;;
38208;SDS011;24016;52.102;11.584;2023-07-13T02:17:28;8.98;;;3.92;;
38208;SDS011;24016;52.102;11.584;2023-07-13T02:19:55;7.43;;;3.58;;
38208;SDS011;24016;52.102;11.584;2023-07-13T02:22:21;4.85;;;3.00;;
38208;SDS011;24016;52.102;11.584;2023-07-13T02:24:47;5.80;;;3.50;;
38208;SDS011;24016;52.102;11.584;2023-07-13T02:27:13;5.53;;;3.33;;
38208;SDS011;24016;52.102;11.584;2023-07-13T02:29:40;6.57;;;3.90;;
38208;SDS011;24016;52.102;11.584;2023-07-13T02:32:08;5.32;;;3.30;;
38208;SDS011;24016;52.102;11.584;2023-07-13T02:34:34;5.07;;;3.35;;
38208;SDS011;24016;52.102;11.584;2023-07-13T02:36:59;4.28;;;3.58;;
38208;SDS011;24016;52.102;11.584;2023-07-13T02:39:25;4.97;;;3.53;;
38208;SDS011;24016;52.102;11.584;2023-07-13T02:41:51;8.35;;;4.18;;
38208;SDS011;24016;52.102;11.584;2023-07-13T02:44:16;5.60;;;3.58;;
38208;SDS011;24016;52.102;11.584;2023-07-13T02:46:42;6.20;;;3.92;;
38208;SDS011;24016;52.102;11.584;2023-07-13T02:49:07;5.72;;;3.38;;
38208;SDS011;24016;52.102;11.584;2023-07-13T02:51:33;6.72;;;3.70;;
38208;SDS011;24016;52.102;11.584;2023-07-13T02:53:59;7.57;;;3.38;;
38208;SDS011;24016;52.102;11.584;2023-07-13T02:56:26;7.18;;;3.42;;
38208;SDS011;24016;52.102;11.584;2023-07-13T02:58:53;6.00;;;3.47;;
38208;SDS011;24016;52.102;11.584;2023-07-13T03:01:20;8.10;;;3.20;;
38208;SDS011;24016;52.102;11.584;2023-07-13T03:03:47;5.68;;;3.45;;
38208;SDS011;24016;52.102;11.584;2023-07-13T03:06:16;6.78;;;3.83;;
38208;SDS011;24016;52.102;11.584;2023-07-13T03:08:44;8.02;;;4.00;;
38208;SDS011;24016;52.102;11.584;2023-07-13T03:11:11;4.35;;;3.30;;
38208;SDS011;24016;52.102;11.584;2023-07-13T03:13:39;5.38;;;3.60;;
38208;SDS011;24016;52.102;11.584;2023-07-13T03:16:05;6.47;;;3.55;;
38208;SDS011;24016;52.102;11.584;2023-07-13T03:18:32;5.65;;;3.40;;
38208;SDS011;24016;52.102;11.584;2023-07-13T03:20:57;5.13;;;3.65;;
38208;SDS011;24016;52.102;11.584;2023-07-13T03:23:23;7.88;;;3.75;;
38208;SDS011;24016;52.102;11.584;2023-07-13T03:26:00;6.53;;;3.88;;
38208;SDS011;24016;52.102;11.584;2023-07-13T03:28:32;7.95;;;3.85;;
38208;SDS011;24016;52.102;11.584;2023-07-13T03:31:02;9.00;;;4.00;;
38208;SDS011;24016;52.102;11.584;2023-07-13T03:35:55;7.07;;;3.67;;
38208;SDS011;24016;52.102;11.584;2023-07-13T03:38:21;8.45;;;4.18;;
38208;SDS011;24016;52.102;11.584;2023-07-13T03:40:47;7.57;;;3.55;;
38208;SDS011;24016;52.102;11.584;2023-07-13T03:43:12;7.00;;;3.60;;
38208;SDS011;24016;52.102;11.584;2023-07-13T03:45:38;7.20;;;3.60;;
38208;SDS011;24016;52.102;11.584;2023-07-13T03:48:05;8.38;;;3.92;;
38208;SDS011;24016;52.102;11.584;2023-07-13T03:50:31;6.47;;;3.60;;
38208;SDS011;24016;52.102;11.584;2023-07-13T03:52:59;5.55;;;3.50;;
38208;SDS011;24016;52.102;11.584;2023-07-13T03:55:25;5.80;;;3.30;;
38208;SDS011;24016;52.102;11.584;2023-07-13T03:57:57;5.45;;;3.40;;
38208;SDS011;24016;52.102;11.584;2023-07-13T04:00:25;6.57;;;3.22;;
38208;SDS011;24016;52.102;11.584;2023-07-13T04:02:51;6.03;;;3.42;;
38208;SDS011;24016;52.102;11.584;2023-07-13T04:05:17;8.50;;;3.40;;
38208;SDS011;24016;52.102;11.584;2023-07-13T04:07:43;7.18;;;3.08;;
38208;SDS011;24016;52.102;11.584;2023-07-13T04:10:09;5.80;;;3.45;;
38208;SDS011;24016;52.102;11.584;2023-07-13T04:12:34;6.82;;;3.25;;
38208;SDS011;24016;52.102;11.584;2023-07-13T04:15:00;5.18;;;2.95;;
38208;SDS011;24016;52.102;11.584;2023-07-13T04:17:25;5.75;;;3.60;;
38208;SDS011;24016;52.102;11.584;2023-07-13T04:19:51;4.65;;;3.00;;
38208;SDS011;24016;52.102;11.584;2023-07-13T04:22:17;6.30;;;2.90;;
38208;SDS011;24016;52.102;11.584;2023-07-13T04:24:43;6.53;;;2.97;;
38208;SDS011;24016;52.102;11.584;2023-07-13T04:27:08;7.13;;;3.17;;
38208;SDS011;24016;52.102;11.584;2023-07-13T04:29:34;5.60;;;3.08;;
38208;SDS011;24016;52.102;11.584;2023-07-13T04:31:59;5.65;;;3.33;;
38208;SDS011;24016;52.102;11.584;2023-07-13T04:34:25;8.32;;;3.35;;
38208;SDS011;24016;52.102;11.584;2023-07-13T04:36:52;4.38;;;3.17;;
38208;SDS011;24016;52.102;11.584;2023-07-13T04:39:19;8.00;;;3.50;;
38208;SDS011;24016;52.102;11.584;2023-07-13T04:41:45;7.03;;;3.03;;
38208;SDS011;24016;52.102;11.584;2023-07-13T04:44:11;6.22;;;3.03;;
38208;SDS011;24016;52.102;11.584;2023-07-13T04:46:38;4.03;;;2.80;;
38208;SDS011;24016;52.102;11.584;2023-07-13T04:49:04;6.55;;;2.65;;
38208;SDS011;24016;52.102;11.584;2023-07-13T04:51:29;5.10;;;3.05;;
38208;SDS011;24016;52.102;11.584;2023-07-13T04:53:55;5.43;;;2.92;;
38208;SDS011;24016;52.102;11.584;2023-07-13T04:56:21;9.13;;;3.60;;
38208;SDS011;24016;52.102;11.584;2023-07-13T04:58:47;6.43;;;3.40;;
38208;SDS011;24016;52.102;11.584;2023-07-13T05:01:13;5.68;;;2.88;;
38208;SDS011;24016;52.102;11.584;2023-07-13T05:03:39;4.68;;;2.70;;
38208;SDS011;24016;52.102;11.584;2023-07-13T05:06:05;6.55;;;3.17;;
38208;SDS011;24016;52.102;11.584;2023-07-13T05:08:35;4.43;;;2.90;;
38208;SDS011;24016;52.102;11.584;2023-07-13T05:11:03;4.93;;;3.22;;
38208;SDS011;24016;52.102;11.584;2023-07-13T05:13:30;7.60;;;3.45;;
38208;SDS011;24016;52.102;11.584;2023-07-13T05:16:00;5.78;;;2.70;;
38208;SDS011;24016;52.102;11.584;2023-07-13T05:18:28;7.22;;;3.03;;
38208;SDS011;24016;52.102;11.584;2023-07-13T05:21:03;7.15;;;3.08;;
38208;SDS011;24016;52.102;11.584;2023-07-13T05:23:32;5.32;;;2.70;;
38208;SDS011;24016;52.102;11.584;2023-07-13T05:26:00;6.65;;;3.08;;
38208;SDS011;24016;52.102;11.584;2023-07-13T05:28:28;6.38;;;3.00;;
38208;SDS011;24016;52.102;11.584;2023-07-13T05:30:56;4.80;;;2.70;;
38208;SDS011;24016;52.102;11.584;2023-07-13T05:33:22;4.03;;;2.58;;
38208;SDS011;24016;52.102;11.584;2023-07-13T05:35:50;5.60;;;2.42;;
38208;SDS011;24016;52.102;11.584;2023-07-13T05:38:15;7.90;;;2.72;;
38208;SDS011;24016;52.102;11.584;2023-07-13T05:40:45;7.03;;;2.70;;
38208;SDS011;24016;52.102;11.584;2023-07-13T05:43:11;6.55;;;2.65;;
38208;SDS011;24016;52.102;11.584;2023-07-13T05:45:39;6.65;;;2.42;;
38208;SDS011;24016;52.102;11.584;2023-07-13T05:48:07;5.18;;;2.80;;
38208;SDS011;24016;52.102;11.584;2023-07-13T05:50:34;6.50;;;2.33;;
38208;SDS011;24016;52.102;11.584;2023-07-13T05:52:59;5.47;;;2.38;;
38208;SDS011;24016;52.102;11.584;2023-07-13T05:55:25;6.72;;;2.88;;
38208;SDS011;24016;52.102;11.584;2023-07-13T05:57:50;5.72;;;2.45;;
38208;SDS011;24016;52.102;11.584;2023-07-13T06:00:16;7.40;;;2.90;;
38208;SDS011;24016;52.102;11.584;2023-07-13T06:02:42;4.90;;;2.63;;
38208;SDS011;24016;52.102;11.584;2023-07-13T06:05:08;4.70;;;2.50;;
38208;SDS011;24016;52.102;11.584;2023-07-13T06:07:36;6.65;;;2.55;;
38208;SDS011;24016;52.102;11.584;2023-07-13T06:10:02;7.55;;;3.00;;
38208;SDS011;24016;52.102;11.584;2023-07-13T06:12:28;5.93;;;2.58;;
38208;SDS011;24016;52.102;11.584;2023-07-13T06:14:55;4.00;;;2.25;;
38208;SDS011;24016;52.102;11.584;2023-07-13T06:17:20;4.72;;;2.40;;
38208;SDS011;24016;52.102;11.584;2023-07-13T06:19:49;6.95;;;2.40;;
38208;SDS011;24016;52.102;11.584;2023-07-13T06:22:16;4.55;;;2.08;;
38208;SDS011;24016;52.102;11.584;2023-07-13T06:24:41;8.00;;;2.63;;
38208;SDS011;24016;52.102;11.584;2023-07-13T06:27:07;5.30;;;2.17;;
38208;SDS011;24016;52.102;11.584;2023-07-13T06:29:35;5.55;;;2.10;;
38208;SDS011;24016;52.102;11.584;2023-07-13T06:32:04;4.65;;;2.60;;
38208;SDS011;24016;52.102;11.584;2023-07-13T06:34:30;6.22;;;2.33;;
38208;SDS011;24016;52.102;11.584;2023-07-13T06:36:56;8.00;;;2.63;;
38208;SDS011;24016;52.102;11.584;2023-07-13T06:39:21;6.43;;;2.30;;
38208;SDS011;24016;52.102;11.584;2023-07-13T06:41:47;8.43;;;2.30;;
38208;SDS011;24016;52.102;11.584;2023-07-13T06:44:15;6.28;;;2.25;;
38208;SDS011;24016;52.102;11.584;2023-07-13T06:46:41;8.60;;;2.35;;
38208;SDS011;24016;52.102;11.584;2023-07-13T06:49:07;3.35;;;1.98;;
38208;SDS011;24016;52.102;11.584;2023-07-13T06:51:34;5.03;;;2.47;;
38208;SDS011;24016;52.102;11.584;2023-07-13T06:54:00;5.38;;;1.92;;
38208;SDS011;24016;52.102;11.584;2023-07-13T06:56:25;5.93;;;1.95;;
38208;SDS011;24016;52.102;11.584;2023-07-13T06:58:54;4.53;;;1.90;;
38208;SDS011;24016;52.102;11.584;2023-07-13T07:01:20;3.38;;;2.00;;
38208;SDS011;24016;52.102;11.584;2023-07-13T07:03:45;7.15;;;2.10;;
38208;SDS011;24016;52.102;11.584;2023-07-13T07:06:13;7.20;;;2.63;;
38208;SDS011;24016;52.102;11.584;2023-07-13T07:08:41;5.03;;;1.85;;
38208;SDS011;24016;52.102;11.584;2023-07-13T07:11:12;4.32;;;2.00;;
38208;SDS011;24016;52.102;11.584;2023-07-13T07:13:39;3.97;;;1.80;;
38208;SDS011;24016;52.102;11.584;2023-07-13T07:16:05;7.47;;;1.90;;
38208;SDS011;24016;52.102;11.584;2023-07-13T07:18:31;6.13;;;1.70;;
38208;SDS011;24016;52.102;11.584;2023-07-13T07:20:57;4.85;;;1.88;;
38208;SDS011;24016;52.102;11.584;2023-07-13T07:23:23;7.57;;;2.28;;
38208;SDS011;24016;52.102;11.584;2023-07-13T07:25:48;8.05;;;1.77;;
38208;SDS011;24016;52.102;11.584;2023-07-13T07:28:15;7.30;;;2.00;;
38208;SDS011;24016;52.102;11.584;2023-07-13T07:30:43;6.57;;;1.90;;
38208;SDS011;24016;52.102;11.584;2023-07-13T07:33:10;5.70;;;1.98;;
38208;SDS011;24016;52.102;11.584;2023-07-13T07:35:39;5.53;;;1.77;;
38208;SDS011;24016;52.102;11.584;2023-07-13T07:38:05;7.60;;;2.00;;
38208;SDS011;24016;52.102;11.584;2023-07-13T07:40:30;5.43;;;1.83;;
38208;SDS011;24016;52.102;11.584;2023-07-13T07:42:56;4.43;;;1.63;;
38208;SDS011;24016;52.102;11.584;2023-07-13T07:45:22;3.90;;;1.73;;
38208;SDS011;24016;52.102;11.584;2023-07-13T07:47:48;4.15;;;1.80;;
38208;SDS011;24016;52.102;11.584;2023-07-13T07:50:14;5.60;;;2.28;;
38208;SDS011;24016;52.102;11.584;2023-07-13T07:52:40;6.63;;;2.50;;
38208;SDS011;24016;52.102;11.584;2023-07-13T07:55:06;5.43;;;2.10;;
38208;SDS011;24016;52.102;11.584;2023-07-13T07:57:33;6.63;;;2.03;;
38208;SDS011;24016;52.102;11.584;2023-07-13T07:59:59;5.97;;;2.10;;
38208;SDS011;24016;52.102;11.584;2023-07-13T08:02:25;5.38;;;2.05;;
38208;SDS011;24016;52.102;11.584;2023-07-13T08:04:50;6.18;;;2.65;;
38208;SDS011;24016;52.102;11.584;2023-07-13T08:07:17;5.90;;;2.78;;
38208;SDS011;24016;52.102;11.584;2023-07-13T08:09:43;7.70;;;2.75;;
38208;SDS011;24016;52.102;11.584;2023-07-13T08:12:09;6.03;;;2.15;;
38208;SDS011;24016;52.102;11.584;2023-07-13T08:14:34;7.15;;;2.40;;
38208;SDS011;24016;52.102;11.584;2023-07-13T08:17:00;4.95;;;2.10;;
38208;SDS011;24016;52.102;11.584;2023-07-13T08:19:25;5.30;;;2.03;;
38208;SDS011;24016;52.102;11.584;2023-07-13T08:21:51;7.30;;;2.25;;
38208;SDS011;24016;52.102;11.584;2023-07-13T08:24:17;10.57;;;2.00;;
38208;SDS011;24016;52.102;11.584;2023-07-13T08:26:46;7.25;;;2.05;;
38208;SDS011;24016;52.102;11.584;2023-07-13T08:29:13;4.78;;;2.10;;
38208;SDS011;24016;52.102;11.584;2023-07-13T08:31:39;3.50;;;1.58;;
38208;SDS011;24016;52.102;11.584;2023-07-13T08:34:04;4.63;;;1.85;;
38208;SDS011;24016;52.102;11.584;2023-07-13T08:36:32;6.82;;;2.05;;
38208;SDS011;24016;52.102;11.584;2023-07-13T08:38:57;6.85;;;1.85;;
38208;SDS011;24016;52.102;11.584;2023-07-13T08:41:31;4.38;;;1.70;;
38208;SDS011;24016;52.102;11.584;2023-07-13T08:44:00;4.90;;;1.75;;
38208;SDS011;24016;52.102;11.584;2023-07-13T08:46:32;6.60;;;1.83;;
38208;SDS011;24016;52.102;11.584;2023-07-13T08:49:05;7.53;;;1.83;;
38208;SDS011;24016;52.102;11.584;2023-07-13T08:51:47;4.85;;;1.63;;
38208;SDS011;24016;52.102;11.584;2023-07-13T08:54:29;4.60;;;1.75;;
38208;SDS011;24016;52.102;11.584;2023-07-13T08:57:02;2.65;;;1.30;;
38208;SDS011;24016;52.102;11.584;2023-07-13T08:59:35;5.22;;;1.65;;
38208;SDS011;24016;52.102;11.584;2023-07-13T09:04:50;7.88;;;1.63;;
38208;SDS011;24016;52.102;11.584;2023-07-13T09:07:27;5.47;;;1.60;;
38208;SDS011;24016;52.102;11.584;2023-07-13T09:14:13;3.92;;;1.75;;
38208;SDS011;24016;52.102;11.584;2023-07-13T09:16:18;6.68;;;1.52;;
38208;SDS011;24016;52.102;11.584;2023-07-13T09:18:46;4.78;;;1.65;;
38208;SDS011;24016;52.102;11.584;2023-07-13T09:21:27;3.65;;;1.67;;
38208;SDS011;24016;52.102;11.584;2023-07-13T09:24:01;6.53;;;1.80;;
38208;SDS011;24016;52.102;11.584;2023-07-13T09:26:47;5.30;;;1.58;;
38208;SDS011;24016;52.102;11.584;2023-07-13T09:29:14;4.38;;;1.52;;
38208;SDS011;24016;52.102;11.584;2023-07-13T09:31:54;3.63;;;1.33;;
38208;SDS011;24016;52.102;11.584;2023-07-13T09:34:25;3.58;;;1.60;;
38208;SDS011;24016;52.102;11.584;2023-07-13T09:36:51;5.72;;;1.77;;
38208;SDS011;24016;52.102;11.584;2023-07-13T09:39:33;3.47;;;1.50;;
38208;SDS011;24016;52.102;11.584;2023-07-13T09:42:18;4.18;;;1.65;;
38208;SDS011;24016;52.102;11.584;2023-07-13T09:44:55;3.45;;;1.48;;
38208;SDS011;24016;52.102;11.584;2023-07-13T09:47:29;5.75;;;1.85;;
38208;SDS011;24016;52.102;11.584;2023-07-13T09:50:06;4.65;;;1.58;;
38208;SDS011;24016;52.102;11.584;2023-07-13T09:52:47;3.60;;;1.50;;
38208;SDS011;24016;52.102;11.584;2023-07-13T09:55:24;5.53;;;1.60;;
38208;SDS011;24016;52.102;11.584;2023-07-13T09:57:55;4.35;;;1.50;;
38208;SDS011;24016;52.102;11.584;2023-07-13T10:00:31;3.95;;;1.30;;
38208;SDS011;24016;52.102;11.584;2023-07-13T10:03:05;4.22;;;1.70;;
38208;SDS011;24016;52.102;11.584;2023-07-13T10:05:41;4.53;;;1.73;;
38208;SDS011;24016;52.102;11.584;2023-07-13T10:08:16;3.35;;;1.40;;
38208;SDS011;24016;52.102;11.584;2023-07-13T10:10:51;5.28;;;1.38;;
38208;SDS011;24016;52.102;11.584;2023-07-13T10:13:28;4.25;;;1.35;;
38208;SDS011;24016;52.102;11.584;2023-07-13T10:15:57;4.80;;;1.50;;
38208;SDS011;24016;52.102;11.584;2023-07-13T10:18:24;3.63;;;1.23;;
38208;SDS011;24016;52.102;11.584;2023-07-13T10:20:58;4.75;;;1.38;;
38208;SDS011;24016;52.102;11.584;2023-07-13T10:23:36;2.80;;;1.25;;
38208;SDS011;24016;52.102;11.584;2023-07-13T10:26:19;4.70;;;1.60;;
38208;SDS011;24016;52.102;11.584;2023-07-13T10:28:57;4.07;;;1.33;;
38208;SDS011;24016;52.102;11.584;2023-07-13T10:31:29;5.07;;;1.40;;
38208;SDS011;24016;52.102;11.584;2023-07-13T10:34:16;2.78;;;1.27;;
38208;SDS011;24016;52.102;11.584;2023-07-13T10:36:47;2.42;;;1.02;;
38208;SDS011;24016;52.102;11.584;2023-07-13T10:39:26;4.55;;;1.20;;
38208;SDS011;24016;52.102;11.584;2023-07-13T10:41:59;6.20;;;1.17;;
38208;SDS011;24016;52.102;11.584;2023-07-13T10:44:32;3.70;;;1.20;;
38208;SDS011;24016;52.102;11.584;2023-07-13T10:46:59;3.85;;;1.30;;
38208;SDS011;24016;52.102;11.584;2023-07-13T10:49:34;3.03;;;1.05;;
38208;SDS011;24016;52.102;11.584;2023-07-13T10:52:20;4.95;;;1.50;;
38208;SDS011;24016;52.102;11.584;2023-07-13T11:03:55;4.20;;;1.33;;
38208;SDS011;24016;52.102;11.584;2023-07-13T11:08:56;5.20;;;1.40;;
38208;SDS011;24016;52.102;11.584;2023-07-13T11:14:00;2.90;;;1.10;;
38208;SDS011;24016;52.102;11.584;2023-07-13T11:16:46;5.10;;;1.08;;
38208;SDS011;24016;52.102;11.584;2023-07-13T11:19:53;2.47;;;1.02;;
38208;SDS011;24016;52.102;11.584;2023-07-13T11:22:41;2.08;;;0.93;;
38208;SDS011;24016;52.102;11.584;2023-07-13T11:25:27;3.22;;;1.10;;
38208;SDS011;24016;52.102;11.584;2023-07-13T11:30:53;3.88;;;1.02;;
38208;SDS011;24016;52.102;11.584;2023-07-13T11:36:12;5.80;;;1.13;;
38208;SDS011;24016;52.102;11.584;2023-07-13T11:39:00;2.65;;;1.00;;
38208;SDS011;24016;52.102;11.584;2023-07-13T11:41:36;2.45;;;1.00;;
38208;SDS011;24016;52.102;11.584;2023-07-13T11:44:23;3.60;;;1.05;;
38208;SDS011;24016;52.102;11.584;2023-07-13T11:46:51;2.95;;;1.15;;
38208;SDS011;24016;52.102;11.584;2023-07-13T11:49:19;1.98;;;0.95;;
38208;SDS011;24016;52.102;11.584;2023-07-13T11:51:47;4.35;;;1.20;;
38208;SDS011;24016;52.102;11.584;2023-07-13T11:54:25;5.57;;;1.23;;
38208;SDS011;24016;52.102;11.584;2023-07-13T11:56:56;4.95;;;1.25;;
38208;SDS011;24016;52.102;11.584;2023-07-13T11:59:26;2.55;;;0.90;;
38208;SDS011;24016;52.102;11.584;2023-07-13T12:01:54;4.47;;;1.15;;
38208;SDS011;24016;52.102;11.584;2023-07-13T12:04:31;2.83;;;0.93;;
38208;SDS011;24016;52.102;11.584;2023-07-13T12:07:11;3.55;;;1.67;;
38208;SDS011;24016;52.102;11.584;2023-07-13T12:09:41;2.92;;;1.27;;
38208;SDS011;24016;52.102;11.584;2023-07-13T12:12:13;1.88;;;1.10;;
38208;SDS011;24016;52.102;11.584;2023-07-13T12:14:52;2.55;;;1.00;;
38208;SDS011;24016;52.102;11.584;2023-07-13T12:17:26;1.98;;;1.00;;
38208;SDS011;24016;52.102;11.584;2023-07-13T12:20:01;3.47;;;1.20;;
38208;SDS011;24016;52.102;11.584;2023-07-13T12:25:15;3.47;;;1.20;;
38208;SDS011;24016;52.102;11.584;2023-07-13T12:27:42;3.45;;;1.13;;
38208;SDS011;24016;52.102;11.584;2023-07-13T12:30:37;4.45;;;1.10;;
38208;SDS011;24016;52.102;11.584;2023-07-13T12:33:06;3.28;;;1.00;;
38208;SDS011;24016;52.102;11.584;2023-07-13T12:35:40;3.05;;;1.10;;
38208;SDS011;24016;52.102;11.584;2023-07-13T12:38:17;3.83;;;1.48;;
38208;SDS011;24016;52.102;11.584;2023-07-13T12:40:45;3.35;;;1.02;;
38208;SDS011;24016;52.102;11.584;2023-07-13T12:43:20;3.40;;;1.13;;
38208;SDS011;24016;52.102;11.584;2023-07-13T12:45:57;3.08;;;1.17;;
38208;SDS011;24016;52.102;11.584;2023-07-13T12:48:40;1.45;;;1.05;;
38208;SDS011;24016;52.102;11.584;2023-07-13T12:51:11;1.73;;;0.88;;
38208;SDS011;24016;52.102;11.584;2023-07-13T12:53:40;2.55;;;0.90;;
38208;SDS011;24016;52.102;11.584;2023-07-13T12:56:13;4.72;;;1.30;;
38208;SDS011;24016;52.102;11.584;2023-07-13T12:58:56;2.67;;;1.00;;
38208;SDS011;24016;52.102;11.584;2023-07-13T13:01:25;5.97;;;1.33;;
38208;SDS011;24016;52.102;11.584;2023-07-13T13:03:53;3.85;;;1.02;;
38208;SDS011;24016;52.102;11.584;2023-07-13T13:06:26;2.75;;;1.30;;
38208;SDS011;24016;52.102;11.584;2023-07-13T13:08:56;2.45;;;0.93;;
38208;SDS011;24016;52.102;11.584;2023-07-13T13:11:26;6.25;;;1.10;;
38208;SDS011;24016;52.102;11.584;2023-07-13T13:13:56;2.22;;;1.00;;
38208;SDS011;24016;52.102;11.584;2023-07-13T13:16:23;1.92;;;0.95;;
38208;SDS011;24016;52.102;11.584;2023-07-13T13:19:18;3.10;;;1.20;;
38208;SDS011;24016;52.102;11.584;2023-07-13T13:21:49;2.75;;;1.17;;
38208;SDS011;24016;52.102;11.584;2023-07-13T13:24:18;3.10;;;1.08;;
38208;SDS011;24016;52.102;11.584;2023-07-13T13:26:50;2.35;;;1.00;;
38208;SDS011;24016;52.102;11.584;2023-07-13T13:29:17;2.60;;;1.20;;
38208;SDS011;24016;52.102;11.584;2023-07-13T13:31:52;3.38;;;1.10;;
38208;SDS011;24016;52.102;11.584;2023-07-13T13:34:19;2.47;;;1.02;;
38208;SDS011;24016;52.102;11.584;2023-07-13T13:36:48;2.03;;;0.90;;
38208;SDS011;24016;52.102;11.584;2023-07-13T13:39:24;3.53;;;1.00;;
38208;SDS011;24016;52.102;11.584;2023-07-13T13:41:56;2.85;;;1.33;;
38208;SDS011;24016;52.102;11.584;2023-07-13T13:44:21;4.05;;;1.30;;
38208;SDS011;24016;52.102;11.584;2023-07-13T13:46:50;5.22;;;1.30;;
38208;SDS011;24016;52.102;11.584;2023-07-13T13:49:19;2.67;;;1.20;;
38208;SDS011;24016;52.102;11.584;2023-07-13T13:54:16;2.13;;;1.02;;
38208;SDS011;24016;52.102;11.584;2023-07-13T13:56:44;4.85;;;1.10;;
38208;SDS011;24016;52.102;11.584;2023-07-13T13:59:11;3.88;;;1.40;;
38208;SDS011;24016;52.102;11.584;2023-07-13T14:01:37;5.00;;;1.42;;
38208;SDS011;24016;52.102;11.584;2023-07-13T14:04:03;3.30;;;1.60;;
38208;SDS011;24016;52.102;11.584;2023-07-13T14:06:31;2.70;;;1.20;;
38208;SDS011;24016;52.102;11.584;2023-07-13T14:08:58;2.63;;;1.17;;
38208;SDS011;24016;52.102;11.584;2023-07-13T14:11:25;2.90;;;1.17;;
38208;SDS011;24016;52.102;11.584;2023-07-13T14:13:58;2.22;;;1.20;;
38208;SDS011;24016;52.102;11.584;2023-07-13T14:16:26;2.33;;;1.08;;
38208;SDS011;24016;52.102;11.584;2023-07-13T14:18:54;4.40;;;1.35;;
38208;SDS011;24016;52.102;11.584;2023-07-13T14:21:23;4.47;;;1.35;;
38208;SDS011;24016;52.102;11.584;2023-07-13T14:23:50;2.60;;;1.20;;
38208;SDS011;24016;52.102;11.584;2023-07-13T14:26:17;4.03;;;1.38;;
38208;SDS011;24016;52.102;11.584;2023-07-13T14:28:47;3.17;;;1.17;;
38208;SDS011;24016;52.102;11.584;2023-07-13T14:31:16;3.47;;;1.38;;
38208;SDS011;24016;52.102;11.584;2023-07-13T14:33:43;2.17;;;1.10;;
38208;SDS011;24016;52.102;11.584;2023-07-13T14:39:18;4.22;;;1.40;;
38208;SDS011;24016;52.102;11.584;2023-07-13T14:41:52;3.03;;;1.42;;
38208;SDS011;24016;52.102;11.584;2023-07-13T14:44:28;2.55;;;1.30;;
38208;SDS011;24016;52.102;11.584;2023-07-13T14:46:56;4.07;;;1.20;;
38208;SDS011;24016;52.102;11.584;2023-07-13T14:49:32;3.03;;;1.48;;
38208;SDS011;24016;52.102;11.584;2023-07-13T14:52:21;2.78;;;1.30;;
38208;SDS011;24016;52.102;11.584;2023-07-13T14:54:48;4.18;;;1.17;;
38208;SDS011;24016;52.102;11.584;2023-07-13T14:57:15;2.17;;;1.05;;
38208;SDS011;24016;52.102;11.584;2023-07-13T14:59:42;2.10;;;1.20;;
38208;SDS011;24016;52.102;11.584;2023-07-13T15:02:15;3.63;;;1.50;;
38208;SDS011;24016;52.102;11.584;2023-07-13T15:04:47;4.75;;;1.50;;
38208;SDS011;24016;52.102;11.584;2023-07-13T15:07:13;3.70;;;1.50;;
38208;SDS011;24016;52.102;11.584;2023-07-13T15:09:41;4.15;;;1.30;;
38208;SDS011;24016;52.102;11.584;2023-07-13T15:12:08;4.45;;;1.42;;
38208;SDS011;24016;52.102;11.584;2023-07-13T15:14:34;4.78;;;1.33;;
38208;SDS011;24016;52.102;11.584;2023-07-13T15:17:01;3.15;;;1.38;;
38208;SDS011;24016;52.102;11.584;2023-07-13T15:19:27;2.45;;;1.35;;
38208;SDS011;24016;52.102;11.584;2023-07-13T15:21:56;2.83;;;1.30;;
38208;SDS011;24016;52.102;11.584;2023-07-13T15:24:23;8.52;;;1.50;;
38208;SDS011;24016;52.102;11.584;2023-07-13T15:26:49;3.13;;;1.40;;